createdAt,value
2022-09-09T00:00:45.510Z,1.10
2022-09-09T00:03:20.591Z,1.20
2022-09-09T00:05:56.024Z,1.02
2022-09-09T00:08:27.795Z,1.20
2022-09-09T00:11:00.898Z,0.93
2022-09-09T00:13:44.827Z,0.93
2022-09-09T00:16:24.592Z,1.10
2022-09-09T00:19:04.911Z,0.90
2022-09-09T00:21:37.543Z,0.90
2022-09-09T00:24:15.391Z,1.05
2022-09-09T00:26:46.454Z,1.00
2022-09-09T00:29:12.829Z,0.98
2022-09-09T00:31:39.330Z,0.88
2022-09-09T00:34:22.423Z,1.05
2022-09-09T00:36:52.168Z,0.82
2022-09-09T00:39:35.941Z,1.13
2022-09-09T00:42:36.108Z,1.20
2022-09-09T00:45:09.033Z,1.05
2022-09-09T00:47:41.408Z,1.00
2022-09-09T00:50:18.495Z,1.13
2022-09-09T00:52:53.156Z,1.02
2022-09-09T00:55:34.218Z,1.08
2022-09-09T00:58:00.686Z,1.23
2022-09-09T01:00:41.328Z,1.35
2022-09-09T01:03:11.645Z,1.05
2022-09-09T01:06:06.162Z,1.35
2022-09-09T01:08:51.254Z,1.65
2022-09-09T01:11:56.462Z,1.20
2022-09-09T01:14:32.074Z,1.23
2022-09-09T01:17:03.800Z,1.10
2022-09-09T01:19:47.417Z,1.50
2022-09-09T01:22:19.851Z,1.50
2022-09-09T01:25:13.619Z,1.58
2022-09-09T01:27:43.334Z,1.30
2022-09-09T01:30:14.377Z,1.35
2022-09-09T01:32:41.292Z,1.65
2022-09-09T01:35:49.316Z,1.40
2022-09-09T01:38:16.036Z,1.40
2022-09-09T01:40:42.466Z,1.20
2022-09-09T01:43:08.977Z,1.38
2022-09-09T01:45:35.538Z,1.35
2022-09-09T01:48:03.764Z,1.35
2022-09-09T01:50:30.236Z,1.50
2022-09-09T01:52:59.168Z,1.55
2022-09-09T01:55:34.762Z,1.60
2022-09-09T01:58:16.005Z,1.42
2022-09-09T02:00:47.781Z,1.67
2022-09-09T02:03:29.186Z,1.60
2022-09-09T02:06:04.784Z,1.75
2022-09-09T02:08:52.237Z,1.70
2022-09-09T02:11:19.505Z,1.33
2022-09-09T02:13:47.790Z,1.40
2022-09-09T02:16:14.256Z,1.50
2022-09-09T02:19:02.700Z,1.60
2022-09-09T02:21:31.707Z,1.40
2022-09-09T02:24:00.332Z,1.30
2022-09-09T02:26:27.563Z,1.45
2022-09-09T02:28:55.277Z,1.50
2022-09-09T02:31:23.448Z,1.40
2022-09-09T02:33:55.493Z,1.20
2022-09-09T02:36:24.521Z,1.45
2022-09-09T02:38:53.951Z,1.55
2022-09-09T02:41:39.180Z,1.40
2022-09-09T02:44:19.527Z,1.67
2022-09-09T02:47:01.454Z,1.20
2022-09-09T02:49:44.398Z,1.20
2022-09-09T02:52:20.108Z,1.33
2022-09-09T02:54:46.792Z,1.45
2022-09-09T02:57:25.780Z,1.23
2022-09-09T02:59:55.912Z,1.60
2022-09-09T03:02:22.335Z,1.30
2022-09-09T03:04:51.901Z,1.30
2022-09-09T03:07:19.618Z,1.30
2022-09-09T03:09:46.519Z,1.25
2022-09-09T03:12:12.985Z,1.13
2022-09-09T03:14:39.573Z,1.45
2022-09-09T03:17:06.983Z,1.17
2022-09-09T03:19:33.851Z,1.63
2022-09-09T03:22:01.191Z,1.30
2022-09-09T03:24:27.597Z,1.40
2022-09-09T03:26:54.198Z,1.40
2022-09-09T03:29:20.610Z,1.10
2022-09-09T03:31:47.275Z,1.30
2022-09-09T03:34:14.745Z,1.30
2022-09-09T03:36:42.235Z,1.02
2022-09-09T03:39:08.638Z,1.60
2022-09-09T03:41:35.128Z,1.40
2022-09-09T03:44:01.552Z,1.35
2022-09-09T03:46:27.924Z,1.52
2022-09-09T03:48:54.337Z,1.40
2022-09-09T03:51:21.097Z,1.40
2022-09-09T03:53:47.553Z,1.60
2022-09-09T03:56:14.031Z,1.73
2022-09-09T03:58:40.537Z,1.55
2022-09-09T04:01:14.125Z,1.70
2022-09-09T04:03:41.608Z,1.50
2022-09-09T04:06:15.501Z,1.70
2022-09-09T04:08:42.657Z,1.65
2022-09-09T04:11:09.051Z,1.52
2022-09-09T04:13:38.478Z,1.77
2022-09-09T04:16:05.654Z,1.65
2022-09-09T04:18:33.299Z,1.80
2022-09-09T04:20:59.723Z,1.80
2022-09-09T04:23:28.200Z,1.75
2022-09-09T04:25:55.556Z,1.90
2022-09-09T04:28:23.541Z,1.60
2022-09-09T04:30:50.077Z,1.58
2022-09-09T04:33:18.159Z,1.70
2022-09-09T04:35:46.091Z,1.88
2022-09-09T04:38:12.454Z,2.00
2022-09-09T04:40:41.502Z,1.38
2022-09-09T04:43:12.494Z,1.58
2022-09-09T04:45:41.385Z,1.50
2022-09-09T04:48:08.439Z,1.58
2022-09-09T04:50:34.987Z,1.67
2022-09-09T04:53:02.949Z,1.95
2022-09-09T04:55:29.677Z,1.40
2022-09-09T04:57:56.080Z,1.63
2022-09-09T05:00:22.477Z,1.50
2022-09-09T05:02:49.074Z,1.30
2022-09-09T05:05:15.740Z,1.75
2022-09-09T05:07:42.648Z,1.73
2022-09-09T05:10:09.409Z,1.80
2022-09-09T05:12:35.794Z,2.03
2022-09-09T05:15:02.536Z,1.83
2022-09-09T05:17:29.316Z,1.50
2022-09-09T05:19:55.693Z,1.63
2022-09-09T05:22:23.970Z,1.70
2022-09-09T05:24:53.759Z,1.60
2022-09-09T05:27:23.486Z,1.63
2022-09-09T05:29:49.857Z,1.70
2022-09-09T05:32:17.150Z,1.20
2022-09-09T05:34:43.554Z,1.40
2022-09-09T05:37:10.060Z,1.40
2022-09-09T05:39:37.857Z,1.63
2022-09-09T05:42:05.398Z,1.63
2022-09-09T05:44:32.103Z,1.90
2022-09-09T05:46:58.987Z,1.67
2022-09-09T05:49:26.024Z,1.92
2022-09-09T05:51:52.620Z,1.83
2022-09-09T05:54:18.991Z,2.03
2022-09-09T05:56:49.833Z,2.08
2022-09-09T06:01:44.289Z,1.92
2022-09-09T06:04:10.848Z,2.10
2022-09-09T06:06:40.445Z,2.00
2022-09-09T06:09:10.554Z,2.30
2022-09-09T06:11:38.932Z,1.83
2022-09-09T06:14:05.881Z,2.22
2022-09-09T06:16:35.685Z,2.00
2022-09-09T06:19:04.280Z,2.05
2022-09-09T06:21:33.719Z,1.90
2022-09-09T06:24:01.355Z,2.10
2022-09-09T06:26:32.954Z,2.00
2022-09-09T06:28:59.902Z,2.35
2022-09-09T06:31:31.365Z,2.17
2022-09-09T06:33:59.590Z,2.10
2022-09-09T06:36:31.895Z,2.33
2022-09-09T06:38:58.538Z,1.83
2022-09-09T06:41:27.740Z,2.17
2022-09-09T06:43:54.406Z,1.63
2022-09-09T06:46:22.839Z,2.10
2022-09-09T06:48:49.932Z,1.70
2022-09-09T06:51:22.520Z,1.80
2022-09-09T06:53:51.783Z,1.52
2022-09-09T06:56:25.027Z,1.90
2022-09-09T06:58:55.551Z,1.58
2022-09-09T07:01:24.210Z,1.63
2022-09-09T07:03:52.817Z,1.50
2022-09-09T07:06:24.695Z,1.65
2022-09-09T07:09:11.623Z,2.00
2022-09-09T07:11:46.759Z,1.40
2022-09-09T07:14:16.775Z,1.88
2022-09-09T07:16:43.985Z,1.40
2022-09-09T07:19:12.065Z,1.90
2022-09-09T07:21:38.772Z,1.77
2022-09-09T07:24:08.260Z,1.30
2022-09-09T07:26:35.036Z,1.30
2022-09-09T07:29:01.410Z,1.77
2022-09-09T07:31:31.534Z,1.30
2022-09-09T07:33:58.490Z,1.60
2022-09-09T07:36:36.239Z,1.50
2022-09-09T07:39:06.052Z,1.77
2022-09-09T07:41:47.106Z,1.45
2022-09-09T07:44:23.819Z,1.33
2022-09-09T07:46:50.355Z,1.42
2022-09-09T07:49:16.751Z,1.60
2022-09-09T07:51:46.339Z,1.60
2022-09-09T07:54:14.183Z,1.55
2022-09-09T07:56:41.810Z,1.52
2022-09-09T07:59:09.601Z,1.77
2022-09-09T08:01:40.239Z,1.42
2022-09-09T08:04:09.497Z,1.90
2022-09-09T08:06:39.698Z,1.50
2022-09-09T08:09:07.228Z,1.70
2022-09-09T08:11:38.795Z,1.35
2022-09-09T08:14:06.377Z,1.83
2022-09-09T08:16:34.548Z,1.70
2022-09-09T08:19:01.004Z,1.55
2022-09-09T08:21:29.073Z,1.70
2022-09-09T08:23:58.113Z,1.42
2022-09-09T08:26:35.785Z,1.48
2022-09-09T08:29:03.791Z,1.85
2022-09-09T08:31:35.422Z,1.50
2022-09-09T08:34:05.422Z,1.63
2022-09-09T08:36:36.034Z,1.63
2022-09-09T08:39:03.260Z,1.30
2022-09-09T08:42:03.879Z,1.73
2022-09-09T08:44:49.099Z,1.50
2022-09-09T08:47:31.833Z,1.25
2022-09-09T08:50:26.362Z,1.60
2022-09-09T08:52:58.460Z,1.45
2022-09-09T08:55:36.912Z,1.48
2022-09-09T08:58:15.914Z,1.65
2022-09-09T09:01:10.490Z,1.50
2022-09-09T09:03:58.817Z,1.90
2022-09-09T09:06:37.008Z,1.20
2022-09-09T09:09:09.627Z,1.60
2022-09-09T09:11:43.312Z,1.50
2022-09-09T09:14:22.227Z,2.13
2022-09-09T09:17:01.916Z,1.27
2022-09-09T09:19:29.539Z,1.77
2022-09-09T09:21:59.361Z,1.90
2022-09-09T09:24:43.376Z,1.65
2022-09-09T09:27:36.078Z,2.22
2022-09-09T09:30:24.299Z,1.88
2022-09-09T09:35:24.819Z,1.60
2022-09-09T09:40:38.320Z,2.00
2022-09-09T09:43:09.609Z,1.58
2022-09-09T09:45:46.784Z,1.55
2022-09-09T09:48:22.666Z,1.85
2022-09-09T09:51:08.168Z,1.40
2022-09-09T09:53:35.761Z,1.33
2022-09-09T09:56:05.045Z,1.33
2022-09-09T09:58:36.054Z,1.52
2022-09-09T10:01:02.479Z,1.27
2022-09-09T10:03:38.435Z,1.63
2022-09-09T10:06:05.210Z,1.42
2022-09-09T10:08:35.255Z,1.50
2022-09-09T10:11:45.422Z,1.40
2022-09-09T10:14:21.003Z,1.17
2022-09-09T10:16:56.119Z,1.30
2022-09-09T10:19:34.620Z,1.25
2022-09-09T10:22:22.970Z,1.30
2022-09-09T10:25:12.358Z,1.73
2022-09-09T10:27:46.205Z,1.42
2022-09-09T10:30:30.823Z,1.30
2022-09-09T10:33:03.290Z,1.40
2022-09-09T10:38:11.836Z,1.00
2022-09-09T10:40:52.397Z,1.65
2022-09-09T10:43:24.891Z,1.00
2022-09-09T10:48:28.874Z,1.00
2022-09-09T10:51:05.310Z,1.25
2022-09-09T10:53:34.935Z,1.15
2022-09-09T10:56:08.710Z,1.20
2022-09-09T10:58:59.233Z,1.33
2022-09-09T11:01:30.251Z,1.25
2022-09-09T11:04:05.723Z,1.40
2022-09-09T11:06:37.588Z,1.10
2022-09-09T11:09:06.054Z,1.40
2022-09-09T11:11:40.384Z,1.40
2022-09-09T11:14:15.248Z,1.15
2022-09-09T11:16:51.918Z,1.30
2022-09-09T11:19:35.189Z,0.93
2022-09-09T11:22:36.648Z,1.38
2022-09-09T11:25:16.944Z,1.48
2022-09-09T11:28:03.197Z,1.63
2022-09-09T11:30:56.948Z,1.50
2022-09-09T11:33:46.284Z,0.93
2022-09-09T11:36:28.458Z,1.15
2022-09-09T11:39:07.273Z,1.20
2022-09-09T11:41:36.002Z,1.13
2022-09-09T11:44:14.802Z,1.30
2022-09-09T11:46:42.541Z,0.93
2022-09-09T11:49:29.981Z,1.27
2022-09-09T11:51:56.395Z,1.00
2022-09-09T11:54:33.612Z,1.17
2022-09-09T11:57:00.386Z,0.90
2022-09-09T11:59:30.142Z,1.33
2022-09-09T12:02:00.690Z,1.00
2022-09-09T12:04:26.980Z,1.20
2022-09-09T12:06:53.409Z,0.80
2022-09-09T12:09:24.559Z,1.20
2022-09-09T12:11:51.680Z,1.00
2022-09-09T12:14:44.230Z,1.17
2022-09-09T12:19:43.154Z,0.90
2022-09-09T12:22:22.383Z,0.80
2022-09-09T12:25:23.574Z,1.27
2022-09-09T12:28:02.649Z,1.40
2022-09-09T12:30:34.586Z,1.25
2022-09-09T12:33:03.631Z,0.90
2022-09-09T12:35:32.055Z,0.80
2022-09-09T12:38:03.440Z,1.50
2022-09-09T12:40:33.247Z,1.00
2022-09-09T12:43:01.202Z,0.77
2022-09-09T12:45:31.129Z,1.02
2022-09-09T12:48:17.995Z,0.77
2022-09-09T12:50:47.163Z,0.75
2022-09-09T12:53:22.091Z,0.90
2022-09-09T12:55:53.146Z,0.90
2022-09-09T12:58:21.577Z,1.15
2022-09-09T13:00:51.986Z,0.90
2022-09-09T13:03:19.671Z,0.80
2022-09-09T13:05:47.764Z,1.10
2022-09-09T13:08:15.241Z,1.02
2022-09-09T13:10:53.780Z,1.17
2022-09-09T13:13:27.688Z,0.90
2022-09-09T13:15:59.246Z,1.05
2022-09-09T13:18:29.871Z,1.00
2022-09-09T13:20:58.629Z,0.95
2022-09-09T13:23:28.903Z,0.80
2022-09-09T13:26:04.985Z,1.80
2022-09-09T13:28:34.552Z,1.00
2022-09-09T13:31:07.978Z,1.10
2022-09-09T13:33:35.728Z,0.95
2022-09-09T13:36:05.355Z,1.25
2022-09-09T13:38:35.138Z,0.90
2022-09-09T13:41:10.323Z,0.70
2022-09-09T13:43:44.471Z,1.23
2022-09-09T13:46:29.192Z,1.38
2022-09-09T13:49:02.202Z,2.60
2022-09-09T13:51:38.551Z,1.40
2022-09-09T13:54:07.362Z,1.27
2022-09-09T13:56:39.691Z,1.30
2022-09-09T14:01:35.776Z,1.00
2022-09-09T14:04:02.409Z,1.35
2022-09-09T14:06:30.120Z,1.55
2022-09-09T14:08:56.683Z,1.20
2022-09-09T14:11:23.175Z,1.10
2022-09-09T14:13:52.505Z,1.00
2022-09-09T14:16:19.309Z,1.13
2022-09-09T14:18:46.479Z,0.82
2022-09-09T14:21:13.198Z,0.90
2022-09-09T14:23:39.916Z,0.60
2022-09-09T14:26:07.076Z,0.80
2022-09-09T14:31:21.293Z,0.70
2022-09-09T14:33:47.746Z,1.02
2022-09-09T14:36:14.179Z,0.73
2022-09-09T14:38:40.623Z,0.70
2022-09-09T14:41:08.417Z,0.80
2022-09-09T14:43:34.910Z,0.70
2022-09-09T14:46:09.607Z,0.60
2022-09-09T14:48:36.942Z,0.70
2022-09-09T14:51:10.262Z,0.52
2022-09-09T14:53:37.286Z,1.00
2022-09-09T14:56:09.379Z,0.80
2022-09-09T14:58:36.268Z,0.70
2022-09-09T15:01:11.753Z,0.85
2022-09-09T15:03:39.799Z,0.63
2022-09-09T15:06:09.489Z,0.88
2022-09-09T15:08:41.763Z,0.68
2022-09-09T15:11:13.847Z,0.70
2022-09-09T15:13:41.746Z,0.80
2022-09-09T15:16:10.845Z,0.80
2022-09-09T15:18:37.600Z,0.70
2022-09-09T15:21:05.856Z,0.60
2022-09-09T15:23:33.597Z,0.90
2022-09-09T15:26:00.022Z,0.85
2022-09-09T15:28:26.571Z,0.80
2022-09-09T15:30:54.066Z,0.70
2022-09-09T15:33:21.827Z,0.90
2022-09-09T15:35:48.603Z,0.85
2022-09-09T15:38:15.975Z,0.70
2022-09-09T15:40:42.362Z,0.80
2022-09-09T15:43:10.430Z,1.00
2022-09-09T15:45:37.067Z,1.02
2022-09-09T15:48:04.532Z,0.80
2022-09-09T15:50:33.740Z,0.90
2022-09-09T15:53:00.813Z,0.70
2022-09-09T15:55:27.295Z,0.93
2022-09-09T15:57:53.743Z,0.77
2022-09-09T16:00:20.791Z,1.10
2022-09-09T16:02:48.201Z,1.23
2022-09-09T16:05:14.736Z,0.95
2022-09-09T16:07:43.266Z,0.88
2022-09-09T16:10:10.406Z,1.60
2022-09-09T16:12:37.031Z,1.20
2022-09-09T16:15:03.454Z,0.90
2022-09-09T16:17:29.825Z,0.82
2022-09-09T16:19:58.541Z,1.10
2022-09-09T16:22:25.532Z,1.73
2022-09-09T16:24:51.960Z,1.00
2022-09-09T16:27:18.616Z,0.90
2022-09-09T16:29:45.046Z,0.73
2022-09-09T16:32:12.055Z,0.80
2022-09-09T16:34:38.545Z,1.25
2022-09-09T16:37:04.910Z,1.10
2022-09-09T16:39:31.604Z,0.80
2022-09-09T16:41:58.111Z,0.73
2022-09-09T16:44:24.510Z,1.00
2022-09-09T16:46:58.081Z,0.70
2022-09-09T16:49:28.070Z,0.95
2022-09-09T16:51:54.582Z,0.73
2022-09-09T16:54:21.147Z,1.05
2022-09-09T16:56:48.781Z,0.75
2022-09-09T16:59:17.541Z,0.90
2022-09-09T17:01:45.603Z,0.98
2022-09-09T17:04:16.318Z,1.00
2022-09-09T17:06:43.076Z,0.85
2022-09-09T17:09:11.385Z,0.90
2022-09-09T17:11:38.913Z,1.20
2022-09-09T17:14:08.057Z,1.08
2022-09-09T17:16:35.177Z,1.00
2022-09-09T17:19:02.256Z,1.08
2022-09-09T17:21:29.459Z,1.00
2022-09-09T17:23:57.167Z,1.02
2022-09-09T17:26:27.474Z,0.90
2022-09-09T17:28:59.257Z,1.20
2022-09-09T17:31:26.863Z,1.10
2022-09-09T17:33:53.861Z,1.23
2022-09-09T17:36:26.750Z,1.02
2022-09-09T17:38:53.249Z,0.82
2022-09-09T17:41:22.377Z,0.90
2022-09-09T17:43:49.114Z,0.60
2022-09-09T17:46:22.522Z,0.70
2022-09-09T17:48:51.216Z,0.55
2022-09-09T17:51:20.262Z,0.88
2022-09-09T17:53:49.388Z,0.82
2022-09-09T17:56:17.864Z,0.95
2022-09-09T17:58:45.228Z,0.90
2022-09-09T18:01:14.381Z,0.95
2022-09-09T18:03:43.482Z,0.77
2022-09-09T18:06:13.677Z,1.13
2022-09-09T18:08:40.380Z,0.90
2022-09-09T18:11:07.362Z,1.00
2022-09-09T18:13:34.427Z,0.95
2022-09-09T18:16:01.392Z,0.80
2022-09-09T18:18:29.643Z,0.80
2022-09-09T18:21:01.600Z,0.90
2022-09-09T18:23:29.419Z,0.88
2022-09-09T18:25:55.860Z,1.25
2022-09-09T18:28:25.111Z,0.93
2022-09-09T18:30:52.541Z,0.80
2022-09-09T18:33:18.984Z,1.20
2022-09-09T18:35:48.211Z,1.25
2022-09-09T18:38:17.049Z,1.13
2022-09-09T18:40:43.959Z,1.10
2022-09-09T18:43:11.670Z,0.98
2022-09-09T18:45:38.152Z,1.00
2022-09-09T18:48:05.611Z,1.20
2022-09-09T18:50:34.250Z,1.00
2022-09-09T18:53:00.680Z,0.90
2022-09-09T18:55:28.913Z,0.98
2022-09-09T18:57:55.365Z,1.08
2022-09-09T19:00:21.838Z,1.08
2022-09-09T19:02:51.972Z,1.00
2022-09-09T19:05:18.351Z,0.80
2022-09-09T19:07:45.045Z,1.10
2022-09-09T19:10:11.525Z,1.00
2022-09-09T19:12:39.190Z,1.20
2022-09-09T19:15:06.072Z,1.00
2022-09-09T19:17:34.308Z,1.02
2022-09-09T19:20:00.752Z,0.80
2022-09-09T19:22:27.161Z,1.40
2022-09-09T19:24:53.557Z,1.30
2022-09-09T19:27:19.953Z,1.00
2022-09-09T19:29:48.323Z,1.25
2022-09-09T19:32:52.292Z,1.00
2022-09-09T19:35:01.922Z,1.00
2022-09-09T19:37:28.341Z,0.80
2022-09-09T19:39:55.311Z,1.00
2022-09-09T19:42:21.847Z,0.80
2022-09-09T19:44:48.211Z,1.00
2022-09-09T19:47:14.972Z,1.17
2022-09-09T19:49:46.186Z,0.75
2022-09-09T19:52:13.588Z,0.80
2022-09-09T19:54:39.998Z,0.75
2022-09-09T19:57:06.396Z,1.00
2022-09-09T19:59:32.797Z,1.15
2022-09-09T20:01:59.316Z,0.80
2022-09-09T20:04:26.303Z,1.25
2022-09-09T20:06:53.828Z,0.98
2022-09-09T20:09:21.061Z,1.10
2022-09-09T20:11:48.830Z,1.08
2022-09-09T20:14:16.065Z,1.25
2022-09-09T20:16:42.953Z,1.35
2022-09-09T20:19:11.087Z,1.02
2022-09-09T20:21:43.914Z,0.98
2022-09-09T20:24:14.939Z,1.30
2022-09-09T20:26:41.378Z,1.23
2022-09-09T20:29:15.797Z,1.10
2022-09-09T20:31:43.624Z,0.98
2022-09-09T20:34:12.531Z,1.00
2022-09-09T20:36:39.187Z,1.40
2022-09-09T20:39:07.376Z,1.10
2022-09-09T20:41:35.529Z,1.38
2022-09-09T20:44:04.692Z,1.20
2022-09-09T20:46:33.501Z,0.98
2022-09-09T20:49:03.204Z,1.25
2022-09-09T20:51:32.979Z,0.90
2022-09-09T20:54:05.316Z,1.10
2022-09-09T20:56:38.515Z,1.00
2022-09-09T20:59:06.304Z,1.20
2022-09-09T21:01:32.818Z,1.33
2022-09-09T21:04:00.138Z,0.88
2022-09-09T21:06:26.551Z,1.30
2022-09-09T21:08:52.987Z,1.20
2022-09-09T21:11:19.468Z,1.17
2022-09-09T21:13:45.900Z,1.00
2022-09-09T21:16:14.916Z,1.13
2022-09-09T21:18:42.052Z,1.20
2022-09-09T21:21:08.577Z,1.00
2022-09-09T21:23:35.798Z,1.00
2022-09-09T21:26:02.685Z,1.00
2022-09-09T21:28:29.152Z,1.13
2022-09-09T21:30:58.412Z,1.10
2022-09-09T21:33:28.096Z,1.02
2022-09-09T21:36:02.924Z,1.20
2022-09-09T21:38:29.371Z,1.35
2022-09-09T21:40:55.747Z,1.30
2022-09-09T21:43:23.481Z,1.10
2022-09-09T21:45:50.788Z,1.02
2022-09-09T21:48:19.006Z,1.42
2022-09-09T21:50:47.218Z,0.95
2022-09-09T21:53:15.770Z,1.10
2022-09-09T21:55:42.900Z,0.88
2022-09-09T21:58:10.011Z,1.25
2022-09-09T22:00:36.512Z,1.30
2022-09-09T22:03:03.662Z,1.20
2022-09-09T22:05:31.428Z,1.00
2022-09-09T22:07:58.272Z,1.10
2022-09-09T22:10:27.047Z,1.20
2022-09-09T22:12:54.096Z,1.13
2022-09-09T22:15:20.833Z,1.17
2022-09-09T22:17:47.624Z,1.10
2022-09-09T22:20:14.036Z,1.00
2022-09-09T22:22:40.466Z,1.10
2022-09-09T22:25:07.844Z,1.20
2022-09-09T22:27:34.382Z,1.25
2022-09-09T22:30:00.776Z,1.20
2022-09-09T22:32:27.134Z,1.10
2022-09-09T22:34:53.597Z,1.20
2022-09-09T22:37:20.030Z,1.40
2022-09-09T22:39:46.482Z,1.33
2022-09-09T22:42:14.591Z,1.30
2022-09-09T22:44:41.724Z,1.27
2022-09-09T22:47:08.207Z,1.23
2022-09-09T22:49:36.599Z,1.13
2022-09-09T22:52:03.258Z,1.25
2022-09-09T22:54:29.653Z,1.40
2022-09-09T22:56:56.046Z,1.30
2022-09-09T22:59:23.440Z,1.20
2022-09-09T23:01:51.346Z,1.45
2022-09-09T23:04:22.132Z,1.30
2022-09-09T23:06:48.500Z,1.30
2022-09-09T23:09:15.031Z,1.50
2022-09-09T23:11:42.195Z,1.30
2022-09-09T23:14:10.765Z,1.90
2022-09-09T23:16:39.926Z,1.30
2022-09-09T23:19:09.984Z,1.40
2022-09-09T23:21:38.227Z,1.55
2022-09-09T23:24:06.157Z,1.55
2022-09-09T23:26:32.946Z,1.83
2022-09-09T23:29:00.221Z,1.33
2022-09-09T23:31:29.172Z,1.55
2022-09-09T23:33:55.836Z,1.50
2022-09-09T23:36:24.822Z,1.23
2022-09-09T23:38:51.717Z,1.48
2022-09-09T23:41:20.047Z,1.58
2022-09-09T23:43:52.183Z,1.30
2022-09-09T23:46:21.022Z,1.35
2022-09-09T23:48:51.758Z,1.10
2022-09-09T23:51:22.406Z,1.20
2022-09-09T23:53:51.110Z,1.80
2022-09-09T23:56:21.965Z,1.60
2022-09-09T23:58:49.336Z,1.50
